Time;durP1;ratioP1;P1;durP2;ratioP2;P2;SDS_P1;SDS_P2;PMS_P1;PMS_P2;Temp;Humidity;BMP_temperature;BMP_pressure;BME280_temperature;BME280_humidity;BME280_pressure;Samples;Min_cycle;Max_cycle;Signal;HPM_P1;HPM_P2
2022/03/21 00:00:41;;;;;;;7.00;5.80;;;;;;;;;;5025792;28;20223;-78
2022/03/21 00:03:11;;;;;;;5.93;5.00;;;;;;;;;;5039508;28;20227;-77
2022/03/21 00:05:38;;;;;;;6.70;5.87;;;;;;;;;;5046263;28;20220;-78
2022/03/21 00:08:04;;;;;;;6.47;5.63;;;;;;;;;;5039493;28;20303;-79
2022/03/21 00:10:32;;;;;;;6.90;5.60;;;;;;;;;;5016364;28;20226;-80
2022/03/21 00:12:59;;;;;;;8.40;5.77;;;;;;;;;;5024785;28;20310;-80
2022/03/21 00:15:29;;;;;;;8.57;6.03;;;;;;;;;;5038198;28;20259;-79
2022/03/21 00:17:56;;;;;;;7.77;5.73;;;;;;;;;;5006349;28;20246;-79
2022/03/21 00:20:26;;;;;;;7.63;5.80;;;;;;;;;;5055365;28;20707;-80
2022/03/21 00:22:54;;;;;;;6.33;5.60;;;;;;;;;;5038030;28;20279;-80
2022/03/21 00:25:19;;;;;;;7.37;5.80;;;;;;;;;;5024721;28;20223;-80
2022/03/21 00:27:47;;;;;;;6.70;5.50;;;;;;;;;;5011246;28;20734;-80
2022/03/21 00:30:14;;;;;;;7.87;5.47;;;;;;;;;;5015926;28;20239;-79
2022/03/21 00:32:41;;;;;;;7.77;6.10;;;;;;;;;;5016726;28;20220;-79
2022/03/21 00:35:07;;;;;;;7.60;5.70;;;;;;;;;;5022536;28;20620;-78
2022/03/21 00:37:35;;;;;;;7.27;6.00;;;;;;;;;;5013825;28;20243;-79
2022/03/21 00:40:05;;;;;;;8.97;6.50;;;;;;;;;;5052588;28;20220;-80
2022/03/21 00:42:34;;;;;;;7.17;5.87;;;;;;;;;;5022677;28;20240;-78
2022/03/21 00:45:04;;;;;;;7.97;5.83;;;;;;;;;;5021259;28;20262;-79
2022/03/21 00:47:31;;;;;;;7.73;5.80;;;;;;;;;;5022543;28;20673;-80
2022/03/21 00:49:59;;;;;;;7.70;5.70;;;;;;;;;;5019556;28;20314;-79
2022/03/21 00:52:24;;;;;;;7.93;5.97;;;;;;;;;;5014363;28;20228;-80
2022/03/21 00:54:52;;;;;;;7.57;5.87;;;;;;;;;;5006298;28;20216;-79
2022/03/21 00:57:21;;;;;;;6.93;6.10;;;;;;;;;;5041286;28;20216;-78
2022/03/21 00:59:49;;;;;;;9.50;6.30;;;;;;;;;;5026863;28;20223;-80
2022/03/21 01:02:17;;;;;;;8.90;6.20;;;;;;;;;;5014292;28;20228;-79
2022/03/21 01:04:45;;;;;;;7.80;6.03;;;;;;;;;;5067343;28;20265;-79
2022/03/21 01:07:10;;;;;;;7.07;6.00;;;;;;;;;;5034938;28;20216;-78
2022/03/21 01:09:40;;;;;;;9.40;6.37;;;;;;;;;;5058242;28;20227;-79
2022/03/21 01:12:07;;;;;;;7.87;6.30;;;;;;;;;;5028086;28;20232;-80
2022/03/21 01:14:35;;;;;;;7.93;6.33;;;;;;;;;;5081896;28;20224;-81
2022/03/21 01:17:01;;;;;;;8.70;6.43;;;;;;;;;;5061100;28;20241;-79
2022/03/21 01:19:30;;;;;;;7.40;6.37;;;;;;;;;;5074721;28;20216;-80
2022/03/21 01:21:56;;;;;;;7.00;6.07;;;;;;;;;;5047844;28;20222;-79
2022/03/21 01:24:22;;;;;;;8.47;6.57;;;;;;;;;;5037869;28;20222;-79
2022/03/21 01:26:47;;;;;;;7.80;6.47;;;;;;;;;;5011084;28;20247;-82
2022/03/21 01:29:16;;;;;;;7.90;6.33;;;;;;;;;;4993687;28;20281;-78
2022/03/21 01:31:47;;;;;;;9.80;6.33;;;;;;;;;;5044797;28;20257;-79
2022/03/21 01:34:15;;;;;;;7.47;6.60;;;;;;;;;;4998237;28;20227;-80
2022/03/21 01:36:45;;;;;;;8.70;6.57;;;;;;;;;;5044248;28;20271;-78
2022/03/21 01:39:13;;;;;;;8.30;6.40;;;;;;;;;;5043970;28;20227;-80
2022/03/21 01:41:41;;;;;;;8.87;6.77;;;;;;;;;;5009754;28;20694;-79
2022/03/21 01:44:08;;;;;;;8.23;6.23;;;;;;;;;;5003536;28;20227;-80
2022/03/21 01:46:36;;;;;;;9.83;6.50;;;;;;;;;;5020767;28;20219;-80
2022/03/21 01:49:05;;;;;;;8.00;6.73;;;;;;;;;;5027212;28;20227;-79
2022/03/21 01:51:34;;;;;;;8.80;7.00;;;;;;;;;;5001917;28;20219;-80
2022/03/21 01:56:48;;;;;;;8.53;6.67;;;;;;;;;;5032146;28;20234;-79
2022/03/21 01:59:15;;;;;;;8.93;6.50;;;;;;;;;;5020421;28;20224;-79
2022/03/21 02:01:42;;;;;;;8.30;6.40;;;;;;;;;;5031693;28;20759;-79
2022/03/21 02:04:10;;;;;;;8.53;6.60;;;;;;;;;;5011793;28;20230;-78
2022/03/21 02:06:39;;;;;;;7.77;6.47;;;;;;;;;;5017982;28;20223;-79
2022/03/21 02:09:07;;;;;;;7.93;6.87;;;;;;;;;;5011900;28;20232;-79
2022/03/21 02:11:33;;;;;;;8.00;6.83;;;;;;;;;;5020116;28;20226;-78
2022/03/21 02:14:03;;;;;;;9.40;7.33;;;;;;;;;;5013243;28;20665;-80
2022/03/21 02:16:30;;;;;;;8.97;6.83;;;;;;;;;;5017124;28;20306;-79
2022/03/21 02:19:02;;;;;;;10.77;7.00;;;;;;;;;;5023642;28;20219;-79
2022/03/21 02:21:56;;;;;;;9.43;7.10;;;;;;;;;;5036599;28;20228;-80
2022/03/21 02:24:32;;;;;;;8.07;6.43;;;;;;;;;;5019395;28;20219;-79
2022/03/21 02:26:58;;;;;;;10.80;7.40;;;;;;;;;;5007993;28;20219;-80
2022/03/21 02:29:25;;;;;;;8.23;6.93;;;;;;;;;;5014388;28;20231;-80
2022/03/21 02:31:51;;;;;;;8.90;7.20;;;;;;;;;;5029500;28;20231;-80
2022/03/21 02:34:17;;;;;;;10.37;7.07;;;;;;;;;;5016315;28;20262;-79
2022/03/21 02:36:43;;;;;;;7.87;6.90;;;;;;;;;;5027197;28;20223;-79
2022/03/21 02:39:11;;;;;;;9.63;7.37;;;;;;;;;;5019495;28;20245;-80
2022/03/21 02:41:39;;;;;;;8.53;6.97;;;;;;;;;;5038172;28;20294;-81
2022/03/21 02:44:04;;;;;;;9.90;7.30;;;;;;;;;;5026877;28;20239;-79
2022/03/21 02:46:30;;;;;;;11.17;7.10;;;;;;;;;;5028278;28;20249;-80
2022/03/21 02:48:58;;;;;;;9.00;7.17;;;;;;;;;;5021300;28;20223;-79
2022/03/21 02:51:26;;;;;;;8.87;7.40;;;;;;;;;;5013276;28;20230;-79
2022/03/21 02:53:54;;;;;;;8.87;7.50;;;;;;;;;;5004408;28;20211;-80
2022/03/21 02:56:22;;;;;;;9.20;7.20;;;;;;;;;;5031206;28;20219;-80
2022/03/21 02:58:48;;;;;;;11.10;7.57;;;;;;;;;;5011985;28;20303;-80
2022/03/21 03:01:18;;;;;;;9.40;7.43;;;;;;;;;;5031170;28;20223;-80
2022/03/21 03:03:46;;;;;;;9.43;7.57;;;;;;;;;;5014547;28;20219;-80
2022/03/21 03:06:13;;;;;;;8.37;6.80;;;;;;;;;;5027278;28;20239;-80
2022/03/21 03:08:42;;;;;;;9.67;7.20;;;;;;;;;;4997733;28;20243;-80
2022/03/21 03:11:08;;;;;;;9.43;7.17;;;;;;;;;;5012989;28;20235;-80
2022/03/21 03:13:36;;;;;;;8.80;7.23;;;;;;;;;;5051823;28;20223;-80
2022/03/21 03:16:04;;;;;;;12.53;7.53;;;;;;;;;;5020823;28;20225;-81
2022/03/21 03:18:30;;;;;;;8.97;7.03;;;;;;;;;;5049747;28;20945;-81
2022/03/21 03:20:57;;;;;;;9.63;7.63;;;;;;;;;;5024994;28;20232;-80
2022/03/21 03:23:26;;;;;;;11.40;8.07;;;;;;;;;;5006843;28;20234;-81
2022/03/21 03:26:02;;;;;;;9.67;7.60;;;;;;;;;;5007013;28;20217;-79
2022/03/21 03:28:32;;;;;;;8.83;7.07;;;;;;;;;;5012907;28;20231;-79
2022/03/21 03:30:58;;;;;;;10.20;7.33;;;;;;;;;;5005853;28;20254;-79
2022/03/21 03:33:24;;;;;;;9.63;7.43;;;;;;;;;;5006443;28;20219;-79
2022/03/21 03:35:49;;;;;;;9.83;7.60;;;;;;;;;;5006135;28;20250;-79
2022/03/21 03:38:18;;;;;;;10.60;7.67;;;;;;;;;;5022328;28;20254;-79
2022/03/21 03:40:44;;;;;;;10.67;7.60;;;;;;;;;;5021928;28;20222;-80
2022/03/21 03:43:12;;;;;;;11.47;7.93;;;;;;;;;;5010585;28;20227;-79
2022/03/21 03:45:37;;;;;;;8.67;7.30;;;;;;;;;;5036421;28;20215;-80
2022/03/21 03:48:05;;;;;;;11.70;8.03;;;;;;;;;;5053199;28;20208;-77
2022/03/21 03:50:32;;;;;;;8.77;7.63;;;;;;;;;;5030842;28;20311;-79
2022/03/21 03:53:00;;;;;;;9.30;7.57;;;;;;;;;;5061877;28;20227;-78
2022/03/21 03:55:26;;;;;;;11.77;8.10;;;;;;;;;;5018960;28;20227;-79
2022/03/21 03:57:52;;;;;;;9.30;7.47;;;;;;;;;;5028670;28;20223;-79
2022/03/21 04:00:21;;;;;;;10.67;8.07;;;;;;;;;;5024091;28;20260;-79
2022/03/21 04:05:36;;;;;;;11.80;8.23;;;;;;;;;;5052732;28;20277;-80
2022/03/21 04:08:01;;;;;;;10.80;8.67;;;;;;;;;;5001631;28;20702;-81
2022/03/21 04:10:27;;;;;;;11.63;8.10;;;;;;;;;;5047717;28;20288;-81
2022/03/21 04:12:53;;;;;;;10.97;7.90;;;;;;;;;;5030346;28;20242;-79
2022/03/21 04:15:19;;;;;;;10.63;7.97;;;;;;;;;;5033434;28;20322;-81
2022/03/21 04:17:44;;;;;;;11.50;7.97;;;;;;;;;;5024716;28;20266;-80
2022/03/21 04:20:13;;;;;;;10.57;8.17;;;;;;;;;;5013306;28;20212;-81
2022/03/21 04:22:39;;;;;;;9.77;7.53;;;;;;;;;;5000952;28;20219;-79
2022/03/21 04:25:06;;;;;;;9.60;7.63;;;;;;;;;;5022863;28;20219;-80
2022/03/21 04:27:32;;;;;;;10.27;8.17;;;;;;;;;;5014998;28;20231;-79
2022/03/21 04:30:00;;;;;;;10.93;7.90;;;;;;;;;;5015754;28;20216;-81
2022/03/21 04:32:26;;;;;;;9.57;8.43;;;;;;;;;;5049382;28;20238;-81
2022/03/21 04:34:51;;;;;;;11.10;7.87;;;;;;;;;;5032982;28;20220;-79
2022/03/21 04:37:17;;;;;;;10.73;8.50;;;;;;;;;;5022898;28;20212;-78
2022/03/21 04:39:42;;;;;;;11.23;8.97;;;;;;;;;;5012116;28;20215;-80
2022/03/21 04:42:08;;;;;;;10.80;8.77;;;;;;;;;;5047493;28;20286;-80
2022/03/21 04:44:34;;;;;;;11.80;8.80;;;;;;;;;;5022112;28;20223;-80
2022/03/21 04:46:59;;;;;;;9.87;7.93;;;;;;;;;;5066190;28;20635;-79
2022/03/21 04:49:28;;;;;;;10.90;8.23;;;;;;;;;;5049903;28;20219;-79
2022/03/21 04:51:53;;;;;;;15.30;8.83;;;;;;;;;;5052674;28;20259;-79
2022/03/21 04:54:19;;;;;;;10.63;8.27;;;;;;;;;;5050932;28;20231;-80
2022/03/21 04:56:49;;;;;;;10.30;9.10;;;;;;;;;;5049540;28;20283;-78
2022/03/21 04:59:17;;;;;;;9.83;8.43;;;;;;;;;;5030749;28;20721;-81
2022/03/21 05:01:45;;;;;;;11.20;8.43;;;;;;;;;;5026368;28;20207;-81
2022/03/21 05:04:13;;;;;;;10.43;8.07;;;;;;;;;;5028849;28;20226;-81
2022/03/21 05:06:39;;;;;;;11.37;8.77;;;;;;;;;;5051130;28;20224;-80
2022/03/21 05:09:10;;;;;;;11.30;8.57;;;;;;;;;;5033359;28;20223;-80
2022/03/21 05:11:38;;;;;;;11.03;9.50;;;;;;;;;;5014102;28;20251;-81
2022/03/21 05:14:05;;;;;;;10.63;8.37;;;;;;;;;;5022932;28;20232;-80
2022/03/21 05:16:33;;;;;;;11.17;8.60;;;;;;;;;;5053663;28;20242;-81
2022/03/21 05:19:03;;;;;;;10.47;9.20;;;;;;;;;;5051117;28;20232;-79
2022/03/21 05:21:30;;;;;;;10.43;8.83;;;;;;;;;;5053538;28;20302;-81
2022/03/21 05:32:13;;;;;;;11.90;8.80;;;;;;;;;;5018132;28;20228;-81
2022/03/21 05:37:31;;;;;;;11.77;9.13;;;;;;;;;;5020001;28;20223;-79
2022/03/21 05:42:43;;;;;;;12.53;9.17;;;;;;;;;;5073413;28;20261;-79
2022/03/21 05:45:09;;;;;;;15.10;9.73;;;;;;;;;;5029566;28;20236;-79
2022/03/21 05:48:50;;;;;;;12.47;9.00;;;;;;;;;;5059865;28;20200;-83
2022/03/21 05:50:27;;;;;;;11.87;9.20;;;;;;;;;;5053525;28;20211;-82
2022/03/21 05:52:57;;;;;;;11.70;10.10;;;;;;;;;;5069930;28;20202;-80
2022/03/21 05:55:22;;;;;;;10.70;8.53;;;;;;;;;;5073188;28;20251;-80
2022/03/21 05:57:48;;;;;;;12.53;8.90;;;;;;;;;;5056700;28;20236;-81
2022/03/21 06:00:20;;;;;;;12.17;9.47;;;;;;;;;;5063792;28;20242;-81
2022/03/21 06:02:46;;;;;;;11.13;9.03;;;;;;;;;;5048396;28;20258;-81
2022/03/21 06:05:12;;;;;;;13.10;9.30;;;;;;;;;;5036736;28;20224;-79
2022/03/21 06:07:40;;;;;;;10.30;8.63;;;;;;;;;;5031406;28;20215;-80
2022/03/21 06:10:06;;;;;;;13.13;8.70;;;;;;;;;;5040068;28;20243;-83
2022/03/21 06:12:33;;;;;;;12.70;10.57;;;;;;;;;;5032782;28;20424;-80
2022/03/21 06:14:59;;;;;;;12.03;9.17;;;;;;;;;;4998067;28;20239;-80
2022/03/21 06:17:29;;;;;;;11.60;9.70;;;;;;;;;;5054000;28;20223;-79
2022/03/21 06:19:56;;;;;;;12.77;9.33;;;;;;;;;;5036128;28;20220;-80
2022/03/21 06:22:29;;;;;;;10.53;8.87;;;;;;;;;;5035950;28;20211;-79
2022/03/21 06:24:57;;;;;;;15.67;9.40;;;;;;;;;;5038418;28;20246;-80
2022/03/21 06:27:25;;;;;;;12.13;8.93;;;;;;;;;;5045160;28;20226;-81
2022/03/21 06:29:53;;;;;;;12.10;9.70;;;;;;;;;;5033218;28;20731;-80
2022/03/21 06:32:23;;;;;;;12.38;9.20;;;;;;;;;;5033275;28;20103;-79
2022/03/21 06:34:49;;;;;;;13.17;9.20;;;;;;;;;;5024829;28;20287;-78
2022/03/21 06:37:33;;;;;;;11.17;9.47;;;;;;;;;;4999359;28;20245;-79
2022/03/21 06:39:59;;;;;;;14.57;9.60;;;;;;;;;;5020109;28;20224;-79
2022/03/21 06:42:24;;;;;;;12.17;9.17;;;;;;;;;;5045747;28;20284;-79
2022/03/21 06:44:50;;;;;;;12.27;9.73;;;;;;;;;;5027408;28;20248;-79
2022/03/21 06:47:18;;;;;;;11.13;9.37;;;;;;;;;;5042336;28;20227;-79
2022/03/21 06:49:44;;;;;;;11.40;9.20;;;;;;;;;;5019076;28;20216;-80
2022/03/21 06:52:12;;;;;;;11.23;9.40;;;;;;;;;;5064820;28;20694;-79
2022/03/21 06:54:43;;;;;;;11.80;9.20;;;;;;;;;;5019573;28;20753;-80
2022/03/21 06:57:11;;;;;;;10.00;9.00;;;;;;;;;;5013851;28;20224;-79
2022/03/21 06:59:40;;;;;;;12.20;9.23;;;;;;;;;;5025745;28;20223;-78
2022/03/21 07:02:06;;;;;;;11.13;9.20;;;;;;;;;;5025857;28;20207;-80
2022/03/21 07:04:34;;;;;;;11.30;9.10;;;;;;;;;;5036762;28;20223;-80
2022/03/21 07:06:59;;;;;;;13.07;9.60;;;;;;;;;;5020710;28;20290;-79
2022/03/21 07:09:25;;;;;;;13.30;9.27;;;;;;;;;;5022670;28;20358;-79
2022/03/21 07:11:51;;;;;;;13.13;9.40;;;;;;;;;;5013065;28;20227;-79
2022/03/21 07:14:20;;;;;;;12.67;9.37;;;;;;;;;;5020160;28;20234;-80
2022/03/21 07:16:46;;;;;;;11.37;9.37;;;;;;;;;;5015055;28;20224;-79
2022/03/21 07:19:13;;;;;;;11.63;9.50;;;;;;;;;;5024967;28;20265;-80
2022/03/21 07:21:41;;;;;;;12.07;9.43;;;;;;;;;;5028529;28;20234;-78
2022/03/21 07:24:07;;;;;;;11.53;9.13;;;;;;;;;;5021001;28;20716;-79
2022/03/21 07:26:36;;;;;;;13.20;9.60;;;;;;;;;;5036989;28;20228;-79
2022/03/21 07:29:02;;;;;;;14.47;9.63;;;;;;;;;;5013445;28;20242;-80
2022/03/21 07:31:30;;;;;;;11.30;9.03;;;;;;;;;;5050952;28;20223;-80
2022/03/21 07:33:58;;;;;;;12.67;9.20;;;;;;;;;;5045995;28;20223;-78
2022/03/21 07:36:23;;;;;;;11.97;9.40;;;;;;;;;;5035548;28;20708;-80
2022/03/21 07:38:54;;;;;;;10.33;8.73;;;;;;;;;;5017613;28;20222;-80
2022/03/21 07:41:23;;;;;;;10.57;9.20;;;;;;;;;;5019760;28;20297;-80
2022/03/21 07:43:54;;;;;;;10.70;9.53;;;;;;;;;;5039480;28;20247;-80
2022/03/21 07:49:06;;;;;;;10.13;8.97;;;;;;;;;;5045944;28;20216;-80
2022/03/21 07:51:32;;;;;;;12.63;9.80;;;;;;;;;;5018641;28;20319;-80
2022/03/21 07:53:59;;;;;;;9.77;8.77;;;;;;;;;;5011749;28;20255;-79
2022/03/21 07:56:25;;;;;;;11.37;9.70;;;;;;;;;;5046300;28;20762;-80
2022/03/21 07:58:53;;;;;;;14.53;9.23;;;;;;;;;;5025904;28;20257;-80
2022/03/21 08:01:20;;;;;;;10.93;9.60;;;;;;;;;;5039454;28;20697;-80
2022/03/21 08:03:53;;;;;;;10.47;8.93;;;;;;;;;;5018615;28;20227;-80
2022/03/21 08:06:21;;;;;;;10.50;9.37;;;;;;;;;;5044707;28;20227;-80
2022/03/21 08:08:49;;;;;;;11.27;9.37;;;;;;;;;;5046972;28;20219;-79
2022/03/21 08:11:15;;;;;;;11.70;9.20;;;;;;;;;;5028021;28;20312;-80
2022/03/21 08:13:49;;;;;;;11.93;9.10;;;;;;;;;;5056349;28;20668;-81
2022/03/21 08:16:19;;;;;;;10.20;9.10;;;;;;;;;;5044562;28;20226;-80
2022/03/21 08:18:49;;;;;;;10.37;9.03;;;;;;;;;;5041547;28;20224;-80
2022/03/21 08:21:14;;;;;;;14.37;9.53;;;;;;;;;;5021888;28;20306;-80
2022/03/21 08:23:41;;;;;;;10.93;9.40;;;;;;;;;;5049256;28;20228;-80
2022/03/21 08:26:18;;;;;;;10.73;9.23;;;;;;;;;;5055087;28;20220;-79
2022/03/21 08:28:52;;;;;;;10.77;8.97;;;;;;;;;;5024626;28;20709;-81
2022/03/21 08:31:17;;;;;;;10.03;9.03;;;;;;;;;;5049636;28;20228;-80
2022/03/21 08:33:43;;;;;;;12.20;9.87;;;;;;;;;;5057225;28;20220;-80
2022/03/21 08:36:12;;;;;;;10.90;9.33;;;;;;;;;;5025469;28;20368;-83
2022/03/21 08:38:40;;;;;;;14.07;9.00;;;;;;;;;;5051025;28;20211;-78
2022/03/21 08:41:06;;;;;;;12.33;9.40;;;;;;;;;;5041228;28;20224;-80
2022/03/21 08:43:31;;;;;;;13.30;9.77;;;;;;;;;;5018527;28;20226;-79
2022/03/21 08:45:57;;;;;;;12.03;9.67;;;;;;;;;;5037262;28;20241;-79
2022/03/21 08:49:23;;;;;;;10.57;9.17;;;;;;;;;;5052243;28;20298;-80
2022/03/21 08:51:11;;;;;;;10.10;8.93;;;;;;;;;;5049277;28;20235;-80
2022/03/21 08:53:36;;;;;;;11.23;9.07;;;;;;;;;;5021372;28;20779;-78
2022/03/21 08:56:04;;;;;;;10.77;9.60;;;;;;;;;;5039048;28;20227;-80
2022/03/21 08:58:30;;;;;;;12.77;9.27;;;;;;;;;;5018818;28;20506;-80
2022/03/21 09:00:56;;;;;;;11.17;9.67;;;;;;;;;;5049854;28;20303;-80
2022/03/21 09:03:23;;;;;;;10.87;9.30;;;;;;;;;;5045733;28;20210;-80
2022/03/21 09:05:51;;;;;;;12.17;9.67;;;;;;;;;;5038516;28;20239;-81
2022/03/21 09:08:17;;;;;;;12.87;9.23;;;;;;;;;;5022425;28;20326;-81
2022/03/21 09:10:45;;;;;;;10.70;9.60;;;;;;;;;;5048796;28;20580;-80
2022/03/21 09:13:10;;;;;;;13.07;9.60;;;;;;;;;;5059833;28;20235;-81
2022/03/21 09:15:41;;;;;;;10.70;9.60;;;;;;;;;;5058908;28;20244;-81
2022/03/21 09:18:11;;;;;;;12.77;10.03;;;;;;;;;;5037574;28;20232;-81
2022/03/21 09:20:36;;;;;;;11.70;9.47;;;;;;;;;;5041596;28;20228;-78
2022/03/21 09:23:04;;;;;;;10.37;9.27;;;;;;;;;;5030662;28;20224;-79
2022/03/21 09:25:30;;;;;;;10.70;9.60;;;;;;;;;;5043363;28;20700;-79
2022/03/21 09:27:55;;;;;;;13.63;9.83;;;;;;;;;;5023396;28;20219;-78
2022/03/21 09:30:21;;;;;;;10.23;9.13;;;;;;;;;;5052394;28;20226;-79
2022/03/21 09:32:49;;;;;;;11.03;9.30;;;;;;;;;;5021861;28;20212;-78
2022/03/21 09:35:14;;;;;;;10.80;9.50;;;;;;;;;;5044136;28;20226;-78
2022/03/21 09:37:40;;;;;;;11.10;9.87;;;;;;;;;;5035579;28;20220;-78
2022/03/21 09:40:11;;;;;;;10.30;9.20;;;;;;;;;;5049472;28;20817;-73
2022/03/21 09:42:39;;;;;;;10.20;8.90;;;;;;;;;;5025939;28;20215;-78
2022/03/21 09:45:12;;;;;;;10.20;9.10;;;;;;;;;;5024749;28;20863;-77
2022/03/21 09:50:21;;;;;;;11.23;9.37;;;;;;;;;;5036192;28;20226;-76
2022/03/21 09:52:47;;;;;;;13.03;8.93;;;;;;;;;;5018678;28;20631;-77
2022/03/21 09:55:14;;;;;;;10.20;9.10;;;;;;;;;;5012271;28;20219;-77
2022/03/21 09:57:40;;;;;;;10.60;8.83;;;;;;;;;;5001715;28;20227;-76
2022/03/21 10:00:06;;;;;;;10.40;9.27;;;;;;;;;;5045203;28;20306;-77
2022/03/21 10:02:41;;;;;;;10.70;9.47;;;;;;;;;;5044210;28;20572;-79
2022/03/21 10:05:07;;;;;;;12.07;9.63;;;;;;;;;;5011004;28;20692;-77
2022/03/21 10:07:34;;;;;;;10.20;9.20;;;;;;;;;;5024281;28;20643;-76
2022/03/21 10:10:16;;;;;;;11.07;9.30;;;;;;;;;;5049952;28;20251;-76
2022/03/21 10:12:44;;;;;;;10.80;9.70;;;;;;;;;;5016271;28;20229;-78
2022/03/21 10:15:10;;;;;;;11.67;9.67;;;;;;;;;;5041709;28;20224;-78
2022/03/21 10:17:36;;;;;;;12.20;10.60;;;;;;;;;;5032918;28;20212;-78
2022/03/21 10:20:08;;;;;;;10.70;9.60;;;;;;;;;;4997080;28;20273;-77
2022/03/21 10:22:37;;;;;;;11.73;10.45;;;;;;;;;;5023739;28;20428;-77
2022/03/21 10:25:04;;;;;;;10.97;9.50;;;;;;;;;;5026456;28;20227;-77
2022/03/21 10:27:37;;;;;;;10.70;9.60;;;;;;;;;;5015989;28;20219;-77
2022/03/21 10:30:15;;;;;;;12.10;9.47;;;;;;;;;;5057015;28;20226;-76
2022/03/21 10:32:46;;;;;;;11.50;10.00;;;;;;;;;;5037374;28;20327;-77
2022/03/21 10:35:13;;;;;;;10.63;9.27;;;;;;;;;;5031116;28;20667;-77
2022/03/21 10:37:46;;;;;;;10.70;9.60;;;;;;;;;;5031219;28;20224;-76
2022/03/21 10:40:33;;;;;;;10.67;9.57;;;;;;;;;;5053367;28;20272;-75
2022/03/21 10:43:03;;;;;;;11.30;9.50;;;;;;;;;;5051043;28;20230;-76
2022/03/21 10:45:38;;;;;;;11.47;9.83;;;;;;;;;;5018431;28;20231;-76
2022/03/21 10:48:07;;;;;;;11.23;9.93;;;;;;;;;;5063792;28;20296;-78
2022/03/21 10:50:34;;;;;;;10.93;9.77;;;;;;;;;;5043364;28;20235;-76
2022/03/21 10:53:13;;;;;;;11.35;9.63;;;;;;;;;;5051613;28;20278;-78
2022/03/21 10:55:40;;;;;;;11.73;10.50;;;;;;;;;;5064053;28;20432;-78
2022/03/21 10:58:06;;;;;;;10.67;9.67;;;;;;;;;;5040348;28;20712;-79
2022/03/21 11:00:36;;;;;;;11.40;10.20;;;;;;;;;;5037856;28;20239;-77
2022/03/21 11:03:06;;;;;;;11.57;9.90;;;;;;;;;;5037771;28;20314;-77
2022/03/21 11:05:36;;;;;;;13.50;10.25;;;;;;;;;;5034345;28;20219;-77
2022/03/21 11:08:05;;;;;;;11.27;10.13;;;;;;;;;;5034826;28;20253;-77
2022/03/21 11:10:35;;;;;;;11.07;9.87;;;;;;;;;;5032706;28;20585;-76
2022/03/21 11:13:04;;;;;;;12.02;10.18;;;;;;;;;;5055273;28;20230;-77
2022/03/21 11:15:30;;;;;;;10.93;9.82;;;;;;;;;;4989538;28;20235;-78
2022/03/21 11:17:56;;;;;;;11.00;9.90;;;;;;;;;;5027066;28;20239;-79
2022/03/21 11:20:24;;;;;;;13.23;10.20;;;;;;;;;;5033784;28;20211;-78
2022/03/21 11:22:52;;;;;;;13.47;10.00;;;;;;;;;;5019370;28;20269;-78
2022/03/21 11:25:19;;;;;;;11.05;9.95;;;;;;;;;;5025152;28;20224;-78
2022/03/21 11:28:06;;;;;;;11.10;9.98;;;;;;;;;;5026993;28;20643;-76
2022/03/21 11:31:06;;;;;;;12.35;9.88;;;;;;;;;;5049087;28;20231;-77
2022/03/21 11:33:37;;;;;;;12.07;10.48;;;;;;;;;;5036245;28;20224;-77
2022/03/21 11:36:05;;;;;;;11.57;10.15;;;;;;;;;;5021907;28;20228;-79
2022/03/21 11:38:34;;;;;;;11.50;9.52;;;;;;;;;;5014554;28;20254;-79
2022/03/21 11:41:20;;;;;;;10.98;9.88;;;;;;;;;;5015524;28;20759;-78
2022/03/21 11:43:47;;;;;;;11.40;10.07;;;;;;;;;;5046317;28;20611;-78
2022/03/21 11:46:31;;;;;;;12.73;10.20;;;;;;;;;;5023114;28;21032;-78
2022/03/21 11:49:16;;;;;;;11.52;10.32;;;;;;;;;;5017102;28;20224;-79
2022/03/21 11:51:45;;;;;;;11.10;9.70;;;;;;;;;;5040869;28;20692;-77
2022/03/21 11:54:26;;;;;;;11.48;10.27;;;;;;;;;;4993120;28;20378;-79
2022/03/21 11:57:02;;;;;;;11.73;10.48;;;;;;;;;;5044171;28;20302;-78
2022/03/21 11:59:34;;;;;;;10.75;9.65;;;;;;;;;;5035572;28;20276;-78
2022/03/21 12:02:25;;;;;;;10.50;9.45;;;;;;;;;;5028446;28;20224;-78
2022/03/21 12:05:02;;;;;;;11.25;10.05;;;;;;;;;;5049247;28;20246;-79
2022/03/21 12:07:29;;;;;;;10.65;9.55;;;;;;;;;;5041990;28;20224;-79
2022/03/21 12:09:55;;;;;;;11.40;10.10;;;;;;;;;;5035889;28;20284;-79
2022/03/21 12:12:22;;;;;;;11.35;10.20;;;;;;;;;;5042479;28;20625;-78
2022/03/21 12:15:00;;;;;;;12.85;10.50;;;;;;;;;;5051133;28;20219;-79
2022/03/21 12:17:28;;;;;;;11.15;9.98;;;;;;;;;;5059870;28;20295;-79
2022/03/21 12:19:58;;;;;;;13.02;10.23;;;;;;;;;;5054359;28;20212;-77
2022/03/21 12:22:29;;;;;;;12.02;10.40;;;;;;;;;;5050231;28;20851;-78
2022/03/21 12:25:07;;;;;;;11.20;10.10;;;;;;;;;;5035076;28;20239;-79
2022/03/21 12:27:36;;;;;;;12.88;10.07;;;;;;;;;;5022903;28;20230;-79
2022/03/21 12:30:30;;;;;;;12.07;9.68;;;;;;;;;;5030994;28;20230;-78
2022/03/21 12:33:07;;;;;;;11.20;10.00;;;;;;;;;;5050921;28;20223;-78
2022/03/21 12:35:39;;;;;;;11.32;10.20;;;;;;;;;;5048226;28;20227;-80
2022/03/21 12:38:17;;;;;;;11.27;9.85;;;;;;;;;;5050688;28;20223;-79
2022/03/21 12:40:46;;;;;;;10.70;9.60;;;;;;;;;;5049933;28;20240;-78
2022/03/21 12:43:13;;;;;;;11.85;9.95;;;;;;;;;;5056102;28;20231;-79
2022/03/21 12:45:39;;;;;;;11.98;10.27;;;;;;;;;;5029100;28;20223;-79
2022/03/21 12:48:09;;;;;;;11.23;10.13;;;;;;;;;;5060850;28;20246;-79
2022/03/21 12:50:39;;;;;;;14.95;10.50;;;;;;;;;;5020955;28;20278;-79
2022/03/21 12:53:09;;;;;;;10.98;9.85;;;;;;;;;;5069281;28;20231;-80
2022/03/21 12:55:34;;;;;;;11.20;10.07;;;;;;;;;;5039966;28;20216;-81
2022/03/21 12:58:04;;;;;;;11.18;9.93;;;;;;;;;;5055614;28;20219;-79
2022/03/21 13:00:31;;;;;;;11.05;9.88;;;;;;;;;;5040599;28;20258;-80
2022/03/21 13:02:58;;;;;;;13.13;10.35;;;;;;;;;;5037252;28;20215;-80
2022/03/21 13:11:05;;;;;;;11.93;10.10;;;;;;;;;;5034014;28;20247;-77
2022/03/21 13:13:43;;;;;;;10.98;9.80;;;;;;;;;;5057164;28;20272;-79
2022/03/21 13:16:11;;;;;;;12.05;9.90;;;;;;;;;;5044618;28;20219;-77
2022/03/21 13:18:39;;;;;;;11.52;10.27;;;;;;;;;;5032845;28;20563;-77
2022/03/21 13:21:06;;;;;;;11.23;10.13;;;;;;;;;;5049682;28;20291;-81
2022/03/21 13:23:34;;;;;;;11.18;10.02;;;;;;;;;;5032623;28;20230;-81
2022/03/21 13:26:11;;;;;;;10.80;9.70;;;;;;;;;;5020760;28;20215;-78
2022/03/21 13:28:38;;;;;;;11.25;10.05;;;;;;;;;;5056027;28;20246;-81
2022/03/21 13:31:12;;;;;;;11.48;10.30;;;;;;;;;;5054103;28;20228;-79
2022/03/21 13:33:48;;;;;;;11.10;10.10;;;;;;;;;;5053155;28;20241;-78
2022/03/21 13:36:14;;;;;;;11.20;9.50;;;;;;;;;;5034699;28;20214;-80
2022/03/21 13:38:40;;;;;;;11.05;9.95;;;;;;;;;;5054032;28;20258;-79
2022/03/21 13:41:15;;;;;;;11.48;10.15;;;;;;;;;;5035283;28;20434;-78
2022/03/21 13:43:42;;;;;;;13.65;10.32;;;;;;;;;;5050688;28;20226;-78
2022/03/21 13:46:07;;;;;;;13.07;10.43;;;;;;;;;;4995742;28;20223;-78
2022/03/21 13:48:38;;;;;;;11.30;10.02;;;;;;;;;;5018673;28;20220;-79
2022/03/21 13:51:18;;;;;;;10.77;9.68;;;;;;;;;;5055126;28;20223;-78
2022/03/21 13:53:46;;;;;;;10.90;9.82;;;;;;;;;;5029290;28;20227;-79
2022/03/21 13:56:14;;;;;;;12.60;9.77;;;;;;;;;;5019969;28;20640;-79
2022/03/21 13:58:39;;;;;;;11.35;9.77;;;;;;;;;;5045015;28;20623;-80
2022/03/21 14:01:19;;;;;;;11.80;10.18;;;;;;;;;;5011095;28;20572;-78
2022/03/21 14:03:50;;;;;;;11.65;9.95;;;;;;;;;;5007180;28;20216;-80
2022/03/21 14:06:16;;;;;;;10.90;9.80;;;;;;;;;;5017963;28;20237;-78
2022/03/21 14:08:41;;;;;;;12.00;10.57;;;;;;;;;;5013595;28;20978;-80
2022/03/21 14:11:08;;;;;;;11.80;10.43;;;;;;;;;;5044643;28;20234;-79
2022/03/21 14:13:46;;;;;;;10.75;9.57;;;;;;;;;;5037049;28;20234;-80
2022/03/21 14:16:12;;;;;;;11.20;10.10;;;;;;;;;;5001805;28;20227;-77
2022/03/21 14:18:51;;;;;;;14.18;10.40;;;;;;;;;;5025501;28;20612;-78
2022/03/21 14:21:17;;;;;;;11.20;10.00;;;;;;;;;;5055060;28;20219;-79
2022/03/21 14:23:43;;;;;;;12.23;10.55;;;;;;;;;;5051981;28;20246;-78
2022/03/21 14:28:52;;;;;;;11.50;10.30;;;;;;;;;;5044920;28;20231;-79
2022/03/21 14:31:22;;;;;;;11.38;10.35;;;;;;;;;;5044464;28;20666;-77
2022/03/21 14:33:47;;;;;;;11.10;9.82;;;;;;;;;;5030447;28;20231;-80
2022/03/21 14:36:13;;;;;;;11.63;10.43;;;;;;;;;;5053605;28;20219;-78
2022/03/21 14:38:41;;;;;;;10.68;9.52;;;;;;;;;;5031068;28;20207;-79
2022/03/21 14:41:12;;;;;;;13.85;10.30;;;;;;;;;;5011149;28;20891;-79
2022/03/21 14:43:44;;;;;;;10.93;9.82;;;;;;;;;;5047826;28;20219;-79
2022/03/21 14:46:16;;;;;;;11.35;10.07;;;;;;;;;;5009072;28;20258;-78
2022/03/21 14:48:41;;;;;;;11.45;10.25;;;;;;;;;;5024510;28;20219;-78
2022/03/21 14:51:10;;;;;;;11.27;9.98;;;;;;;;;;5030685;28;20235;-78
2022/03/21 14:53:39;;;;;;;11.30;10.10;;;;;;;;;;5047195;28;20219;-78
2022/03/21 14:56:05;;;;;;;11.68;10.32;;;;;;;;;;5024023;28;20362;-79
2022/03/21 14:58:35;;;;;;;11.27;9.70;;;;;;;;;;5036634;28;20269;-79
2022/03/21 15:01:06;;;;;;;12.57;9.85;;;;;;;;;;5045042;28;20227;-78
2022/03/21 15:03:36;;;;;;;11.35;10.25;;;;;;;;;;5030044;28;20230;-77
2022/03/21 15:06:01;;;;;;;11.55;9.90;;;;;;;;;;5029918;28;20222;-79
2022/03/21 15:08:26;;;;;;;10.90;9.80;;;;;;;;;;5017207;28;20285;-79
2022/03/21 15:10:52;;;;;;;11.70;9.95;;;;;;;;;;5043758;28;20239;-79
2022/03/21 15:13:17;;;;;;;11.10;9.48;;;;;;;;;;5038029;28;20234;-80